Time;durP1;ratioP1;P1;durP2;ratioP2;P2;SDS_P1;SDS_P2;PMS_P1;PMS_P2;Temp;Humidity;BMP_temperature;BMP_pressure;BME280_temperature;BME280_humidity;BME280_pressure;Samples;Min_cycle;Max_cycle;Signal;HPM_P1;HPM_P2
2022/08/29 00:00:12;;;;;;;;;;;22.30;64.30;;;21.75;59.23;96216.59;4100560;34;19927;-84
2022/08/29 00:02:41;;;;;;;;;;;22.30;64.30;;;21.74;59.20;96226.13;4122864;34;20023;-84
2022/08/29 00:05:10;;;;;;;;;;;22.30;64.40;;;21.74;59.07;96220.56;4123834;34;20173;-83
2022/08/29 00:07:38;;;;;;;;;;;22.30;64.30;;;21.73;59.32;96221.72;4123149;34;20127;-84
2022/08/29 00:10:08;;;;;;;;;;;22.30;64.40;;;21.72;59.07;96222.88;4123528;34;19969;-84
2022/08/29 00:12:37;;;;;;;;;;;22.30;64.20;;;21.72;59.42;96220.06;4122724;34;19912;-84
2022/08/29 00:15:10;;;;;;;;;;;22.30;64.30;;;21.71;59.41;96215.66;4100455;34;20030;-84
2022/08/29 00:17:38;;;;;;;;;;;22.30;64.30;;;21.71;59.29;96212.88;4123112;34;20074;-84
2022/08/29 00:20:09;;;;;;;;;;;22.30;64.30;;;21.70;59.23;96211.25;4123630;34;20034;-84
2022/08/29 00:22:38;;;;;;;;;;;22.30;64.30;;;21.70;59.32;96210.41;4122661;34;19904;-84
2022/08/29 00:25:07;;;;;;;;;;;22.30;64.20;;;21.71;59.02;96209.25;4122669;34;20355;-84
2022/08/29 00:27:36;;;;;;;;;;;22.30;64.10;;;21.70;59.36;96208.47;4122060;34;19943;-83
2022/08/29 00:30:05;;;;;;;;;;;22.20;64.10;;;21.69;59.22;96212.41;4122595;34;20077;-84
2022/08/29 00:32:35;;;;;;;;;;;22.30;64.20;;;21.69;59.37;96206.81;4099901;34;19911;-84
2022/08/29 00:35:05;;;;;;;;;;;22.30;64.30;;;21.69;59.17;96203.22;4122387;34;20238;-84
2022/08/29 00:37:33;;;;;;;;;;;22.30;64.30;;;21.69;59.14;96200.44;4121975;34;20214;-84
2022/08/29 00:40:03;;;;;;;;;;;22.20;64.20;;;21.67;59.15;96198.00;4122518;34;20121;-85
2022/08/29 00:42:31;;;;;;;;;;;22.30;64.20;;;21.67;59.28;96203.56;4100363;34;20090;-84
2022/08/29 00:45:00;;;;;;;;;;;22.20;64.20;;;21.68;59.26;96204.41;4122512;34;20074;-84
2022/08/29 00:47:32;;;;;;;;;;;22.20;64.10;;;21.66;59.12;96201.94;4121869;34;20127;-84
2022/08/29 00:50:02;;;;;;;;;;;22.20;64.20;;;21.66;59.12;96199.16;4100067;34;20034;-83
2022/08/29 00:52:32;;;;;;;;;;;22.20;64.20;;;21.66;59.26;96203.91;4122394;34;19915;-84
2022/08/29 00:55:01;;;;;;;;;;;22.20;64.20;;;21.65;59.54;96194.72;4100046;34;20181;-83
2022/08/29 00:57:31;;;;;;;;;;;22.20;64.40;;;21.65;59.09;96205.06;4121815;34;20115;-84
2022/08/29 01:00:00;;;;;;;;;;;22.20;64.30;;;21.65;59.38;96193.94;4100073;34;20145;-85
2022/08/29 01:02:28;;;;;;;;;;;22.20;64.30;;;21.63;59.40;96199.81;4122392;34;19908;-84
2022/08/29 01:04:58;;;;;;;;;;;22.20;64.30;;;21.64;59.23;96203.44;4122197;34;19911;-84
2022/08/29 01:07:28;;;;;;;;;;;22.20;64.30;;;21.63;59.47;96194.25;4099656;34;19904;-84
2022/08/29 01:09:56;;;;;;;;;;;22.20;64.50;;;21.63;59.42;96197.03;4122030;34;19911;-83
2022/08/29 01:12:25;;;;;;;;;;;22.20;64.40;;;21.63;59.39;96199.03;4122417;34;19920;-83
2022/08/29 01:14:55;;;;;;;;;;;22.20;64.40;;;21.62;59.05;96195.44;4144729;34;20096;-83
2022/08/29 01:17:28;;;;;;;;;;;22.20;64.30;;;21.61;59.41;96199.38;4121744;34;20058;-83
2022/08/29 01:19:59;;;;;;;;;;;22.20;64.30;;;21.61;59.27;96193.81;4122107;34;19904;-84
2022/08/29 01:22:55;;;;;;;;;;;22.20;64.40;;;21.62;59.31;96209.38;4123145;34;20166;-83
2022/08/29 01:25:30;;;;;;;;;;;22.20;64.30;;;21.61;59.14;96199.38;4117796;34;19904;-84
2022/08/29 01:28:03;;;;;;;;;;;22.20;64.20;;;21.61;59.05;96199.38;4099284;34;19925;-85
2022/08/29 01:30:31;;;;;;;;;;;22.20;64.40;;;21.59;59.64;96205.28;4122107;34;19904;-84
2022/08/29 01:33:00;;;;;;;;;;;22.20;64.40;;;21.60;59.43;96208.88;4123012;34;19904;-84
2022/08/29 01:35:28;;;;;;;;;;;22.20;64.40;;;21.60;59.38;96211.69;4099769;34;19904;-85
2022/08/29 01:37:57;;;;;;;;;;;22.20;64.30;;;21.59;59.42;96212.81;4122395;34;19911;-83
2022/08/29 01:40:30;;;;;;;;;;;22.20;64.40;;;21.58;59.50;96208.38;4144558;34;20106;-83
2022/08/29 01:42:59;;;;;;;;;;;22.20;64.50;;;21.58;59.46;96205.59;4144570;34;20226;-83
2022/08/29 01:45:27;;;;;;;;;;;22.20;64.50;;;21.58;59.68;96211.97;4123458;34;19911;-83
2022/08/29 01:47:56;;;;;;;;;;;22.20;64.50;;;21.57;59.45;96209.53;4124613;34;19904;-84
2022/08/29 01:50:24;;;;;;;;;;;22.10;64.50;;;21.58;59.47;96216.75;4101874;34;19905;-83
2022/08/29 01:52:53;;;;;;;;;;;22.20;64.40;;;21.57;59.42;96215.09;4124312;34;19911;-83
2022/08/29 01:55:22;;;;;;;;;;;22.10;64.50;;;21.56;59.79;96207.91;4101846;34;20486;-84
2022/08/29 01:57:51;;;;;;;;;;;22.10;64.50;;;21.56;59.34;96207.91;4123755;34;19904;-84
2022/08/29 02:00:24;;;;;;;;;;;22.10;64.50;;;21.56;59.39;96205.13;4125048;34;19996;-84
2022/08/29 02:02:53;;;;;;;;;;;22.10;64.50;;;21.55;59.41;96198.75;4102033;34;19990;-83
2022/08/29 02:05:22;;;;;;;;;;;22.20;64.40;;;21.55;59.35;96206.28;4101717;34;20216;-85
2022/08/29 02:07:50;;;;;;;;;;;22.10;64.40;;;21.54;59.69;96204.66;4123619;34;19910;-84
2022/08/29 02:10:19;;;;;;;;;;;22.10;64.40;;;21.54;59.36;96211.03;4124107;34;19960;-83
2022/08/29 02:12:48;;;;;;;;;;;22.10;64.40;;;21.53;59.31;96203.84;4125088;34;20150;-84
2022/08/29 02:15:18;;;;;;;;;;;22.10;64.50;;;21.54;59.41;96213.00;4124903;34;19993;-83
2022/08/29 02:17:47;;;;;;;;;;;22.10;64.50;;;21.53;59.36;96215.00;4123712;34;19966;-83
2022/08/29 02:20:15;;;;;;;;;;;22.10;64.60;;;21.53;59.56;96208.59;4124585;34;19904;-83
2022/08/29 02:22:44;;;;;;;;;;;22.10;64.50;;;21.53;59.35;96208.59;4101561;34;19904;-83
2022/08/29 02:27:58;;;;;;;;;;;22.10;64.40;;;21.51;59.45;96214.50;4123483;34;20061;-83
2022/08/29 02:30:28;;;;;;;;;;;22.10;64.40;;;21.50;59.51;96212.03;4123908;34;20111;-84
2022/08/29 02:32:57;;;;;;;;;;;22.10;64.50;;;21.50;59.59;96212.88;4123976;34;20015;-84
2022/08/29 02:35:25;;;;;;;;;;;22.10;64.50;;;21.50;59.40;96214.84;4101468;34;19904;-85
2022/08/29 02:37:54;;;;;;;;;;;22.10;64.50;;;21.51;59.70;96216.47;4124212;34;19928;-85
2022/08/29 02:40:24;;;;;;;;;;;22.10;64.60;;;21.49;59.48;96210.44;4124741;34;19904;-84
2022/08/29 02:42:53;;;;;;;;;;;22.10;64.60;;;21.50;59.33;96214.84;4101486;34;19950;-84
2022/08/29 02:45:22;;;;;;;;;;;22.10;64.40;;;21.48;59.30;96215.19;4101449;34;20336;-85
2022/08/29 02:47:52;;;;;;;;;;;22.10;64.40;;;21.49;59.36;96216.00;4123144;34;20042;-85
2022/08/29 02:50:24;;;;;;;;;;;22.00;64.40;;;21.47;59.31;96219.13;4100898;34;20215;-85
2022/08/29 02:52:52;;;;;;;;;;;22.10;64.50;;;21.46;59.48;96218.31;4123580;34;19908;-84
2022/08/29 02:55:21;;;;;;;;;;;22.00;64.40;;;21.46;59.65;96223.91;4101259;34;20042;-84
2022/08/29 02:57:51;;;;;;;;;;;22.00;64.60;;;21.46;59.57;96225.84;4122629;34;20169;-84
2022/08/29 03:00:21;;;;;;;;;;;22.10;64.70;;;21.45;59.39;96233.41;4123711;34;19911;-84
2022/08/29 03:02:52;;;;;;;;;;;22.10;64.60;;;21.45;59.50;96225.03;4123436;34;19960;-83
2022/08/29 03:05:23;;;;;;;;;;;22.10;64.60;;;21.45;59.56;96230.63;4123438;34;19911;-84
2022/08/29 03:07:52;;;;;;;;;;;22.10;64.50;;;21.45;59.25;96238.13;4100699;34;20220;-84
2022/08/29 03:10:20;;;;;;;;;;;22.00;64.30;;;21.44;59.16;96240.13;4101290;34;19956;-84
2022/08/29 03:12:49;;;;;;;;;;;22.00;64.40;;;21.43;59.38;96235.72;4100867;34;19904;-84
2022/08/29 03:15:18;;;;;;;;;;;22.00;64.50;;;21.44;59.57;96248.47;4123619;34;20327;-83
2022/08/29 03:17:47;;;;;;;;;;;22.00;64.40;;;21.43;59.37;96246.84;4123830;34;19911;-83
2022/08/29 03:20:19;;;;;;;;;;;22.00;64.50;;;21.43;59.46;96255.19;4123394;34;19998;-85
2022/08/29 03:22:47;;;;;;;;;;;22.00;64.50;;;21.42;59.34;96252.78;4123360;34;20122;-83
2022/08/29 03:25:16;;;;;;;;;;;22.00;64.50;;;21.42;59.11;96258.34;4101039;34;19985;-85
2022/08/29 03:27:45;;;;;;;;;;;22.00;64.40;;;21.43;59.45;96259.94;4100440;34;19904;-84
2022/08/29 03:30:14;;;;;;;;;;;22.00;64.50;;;21.41;59.30;96265.06;4123212;34;20224;-85
2022/08/29 03:32:43;;;;;;;;;;;22.00;64.30;;;21.41;59.62;96254.72;4124095;34;19911;-83
2022/08/29 03:35:13;;;;;;;;;;;22.00;64.60;;;21.40;59.15;96264.22;4124018;34;19904;-83
2022/08/29 03:37:43;;;;;;;;;;;22.00;64.50;;;21.40;59.38;96269.00;4122582;34;19904;-84
2022/08/29 03:40:12;;;;;;;;;;;22.00;64.40;;;21.39;59.47;96267.38;4124112;34;20152;-83
2022/08/29 03:42:42;;;;;;;;;;;22.00;64.40;;;21.39;59.46;96273.75;4123090;34;19904;-84
2022/08/29 03:45:13;;;;;;;;;;;22.00;64.50;;;21.39;59.38;96276.53;4100807;34;20052;-85
2022/08/29 03:47:42;;;;;;;;;;;22.00;64.50;;;21.38;59.49;96272.09;4123432;34;19904;-84
2022/08/29 03:50:11;;;;;;;;;;;22.00;64.50;;;21.37;59.42;96276.03;4123020;34;20096;-83
2022/08/29 03:52:43;;;;;;;;;;;22.00;64.40;;;21.38;59.24;96280.47;4100620;34;19904;-83
2022/08/29 03:55:12;;;;;;;;;;;22.00;64.40;;;21.37;59.35;96278.81;4123953;34;20060;-83
2022/08/29 03:57:40;;;;;;;;;;;22.00;64.30;;;21.37;59.39;96281.59;4122346;34;20004;-83
2022/08/29 04:00:14;;;;;;;;;;;22.00;64.40;;;21.39;59.63;96292.44;4145533;34;20235;-83
2022/08/29 04:02:44;;;;;;;;;;;22.00;64.40;;;21.39;59.40;96296.00;4122948;34;20141;-84
2022/08/29 04:05:13;;;;;;;;;;;22.00;64.30;;;21.39;59.22;96290.44;4122836;34;20130;-83
2022/08/29 04:07:48;;;;;;;;;;;22.00;64.40;;;21.42;59.38;96287.00;4122358;34;19904;-83
2022/08/29 04:10:20;;;;;;;;;;;22.00;64.20;;;21.43;59.14;96288.63;4123730;34;20139;-84
2022/08/29 04:12:49;;;;;;;;;;;22.00;64.10;;;21.44;59.17;96287.47;4123728;34;19970;-84
2022/08/29 04:15:18;;;;;;;;;;;22.10;64.20;;;21.46;58.97;96293.53;4100440;34;19907;-84
2022/08/29 04:17:46;;;;;;;;;;;22.10;64.10;;;21.48;59.02;96292.38;4099861;34;19904;-84
2022/08/29 04:20:15;;;;;;;;;;;22.10;64.00;;;21.50;58.69;96288.09;4100531;34;19921;-84
2022/08/29 04:22:44;;;;;;;;;;;22.10;63.90;;;21.52;58.98;96293.31;4122676;34;19911;-83
2022/08/29 04:25:14;;;;;;;;;;;22.10;63.80;;;21.54;58.74;96293.78;4122783;34;20274;-85
2022/08/29 04:27:43;;;;;;;;;;;22.10;63.90;;;21.54;58.75;96286.25;4099928;34;20001;-84
2022/08/29 04:30:14;;;;;;;;;;;22.20;63.70;;;21.56;58.68;96297.84;4122614;34;19970;-83
2022/08/29 04:32:42;;;;;;;;;;;22.20;63.50;;;21.58;58.79;96292.75;4122371;34;19904;-84
2022/08/29 04:35:12;;;;;;;;;;;22.20;63.40;;;21.60;58.99;96292.47;4100296;34;19904;-83
2022/08/29 04:37:41;;;;;;;;;;;22.20;63.90;;;21.61;59.34;96296.88;4121956;34;19904;-84
2022/08/29 04:40:11;;;;;;;;;;;22.20;64.20;;;21.64;59.40;96301.75;4123378;34;19911;-84
2022/08/29 04:42:41;;;;;;;;;;;22.20;64.20;;;21.66;59.40;96307.81;4122490;34;20018;-83
2022/08/29 04:45:12;;;;;;;;;;;22.30;64.30;;;21.68;59.05;96310.28;4145133;34;19904;-83
2022/08/29 04:47:40;;;;;;;;;;;22.30;64.00;;;21.70;59.11;96307.94;4121758;34;20023;-84
2022/08/29 04:50:11;;;;;;;;;;;22.30;64.00;;;21.72;59.37;96311.19;4100129;34;19904;-84
2022/08/29 04:52:41;;;;;;;;;;;22.30;64.30;;;21.74;59.21;96311.69;4100024;34;19904;-84
2022/08/29 04:55:11;;;;;;;;;;;22.30;64.10;;;21.77;59.27;96314.59;4123388;34;20116;-83
2022/08/29 04:57:41;;;;;;;;;;;22.40;64.00;;;21.82;59.32;96307.19;4122848;34;20321;-83
2022/08/29 05:00:12;;;;;;;;;;;22.40;63.90;;;21.85;59.27;96309.28;4122369;34;20059;-84
2022/08/29 05:02:41;;;;;;;;;;;22.40;64.10;;;21.90;59.40;96311.84;4100052;34;19904;-83
2022/08/29 05:05:12;;;;;;;;;;;22.50;64.40;;;21.97;60.09;96317.72;4122423;34;20167;-84
2022/08/29 05:07:41;;;;;;;;;;;22.60;64.60;;;22.14;59.64;96311.16;4122647;34;19904;-84
2022/08/29 05:10:12;;;;;;;;;;;22.80;64.50;;;22.33;59.13;96315.38;4123166;34;20492;-84
2022/08/29 05:12:42;;;;;;;;;;;23.00;64.00;;;22.50;59.01;96311.63;4122246;34;19915;-84
2022/08/29 05:15:12;;;;;;;;;;;23.20;63.50;;;22.63;58.51;96316.06;4122351;34;20140;-84
2022/08/29 05:17:41;;;;;;;;;;;23.40;62.90;;;22.87;57.89;96311.66;4122455;34;19911;-84
2022/08/29 05:20:10;;;;;;;;;;;23.70;62.10;;;23.18;57.44;96303.84;4123393;34;20176;-83
2022/08/29 05:22:39;;;;;;;;;;;24.00;60.80;;;23.40;56.32;96314.56;4124481;34;19904;-83
2022/08/29 05:25:09;;;;;;;;;;;24.20;59.80;;;23.55;55.40;96306.59;4102311;34;20071;-84
2022/08/29 05:27:38;;;;;;;;;;;24.30;59.00;;;23.59;55.15;96315.91;4123897;34;19990;-84
2022/08/29 05:30:09;;;;;;;;;;;24.40;58.80;;;23.56;55.63;96316.63;4125462;34;19957;-84
2022/08/29 05:32:38;;;;;;;;;;;24.30;58.90;;;23.48;55.66;96315.59;4102025;34;19904;-84
2022/08/29 05:35:07;;;;;;;;;;;24.20;59.00;;;23.40;56.08;96322.13;4125448;34;20335;-84
2022/08/29 05:37:35;;;;;;;;;;;24.10;59.50;;;23.31;56.26;96321.41;4123962;34;19904;-83
2022/08/29 05:40:04;;;;;;;;;;;24.00;59.80;;;23.23;56.55;96315.63;4125251;34;19919;-84
2022/08/29 05:42:33;;;;;;;;;;;24.00;60.20;;;23.17;56.29;96311.44;4124258;34;19911;-84
2022/08/29 05:45:03;;;;;;;;;;;23.90;60.40;;;23.12;56.67;96317.22;4124361;34;19904;-84
2022/08/29 05:47:33;;;;;;;;;;;23.80;60.60;;;23.08;56.62;96317.13;4115693;34;20208;-84
2022/08/29 05:50:02;;;;;;;;;;;23.80;60.80;;;23.08;57.01;96313.50;4124491;34;19904;-84
2022/08/29 05:52:31;;;;;;;;;;;23.80;60.90;;;23.05;56.87;96314.19;4146877;34;19934;-84
2022/08/29 05:55:00;;;;;;;;;;;23.70;61.00;;;23.04;56.96;96313.41;4124138;34;19911;-83
2022/08/29 05:57:29;;;;;;;;;;;23.70;62.00;;;23.04;57.34;96307.00;4123845;34;19963;-84
2022/08/29 05:59:58;;;;;;;;;;;23.70;61.40;;;23.03;57.05;96316.56;4124272;34;20191;-83
2022/08/29 06:02:27;;;;;;;;;;;23.70;61.40;;;23.00;57.15;96309.66;4146723;34;19912;-85
2022/08/29 06:04:57;;;;;;;;;;;23.60;61.40;;;22.98;57.34;96310.03;4124151;34;20168;-84
2022/08/29 06:07:26;;;;;;;;;;;23.60;62.40;;;22.98;57.38;96320.38;4124486;34;19974;-84
2022/08/29 06:09:54;;;;;;;;;;;23.60;61.70;;;22.97;57.45;96308.41;4125054;34;20105;-84
2022/08/29 06:12:23;;;;;;;;;;;23.60;61.70;;;22.98;57.24;96312.81;4124096;34;19904;-83
2022/08/29 06:14:52;;;;;;;;;;;23.60;61.80;;;22.98;57.52;96321.19;4124022;34;19904;-84
2022/08/29 06:17:20;;;;;;;;;;;23.60;61.90;;;22.99;57.51;96317.25;4124468;34;20127;-83
2022/08/29 06:19:50;;;;;;;;;;;23.60;61.90;;;22.99;57.62;96320.03;4124112;34;20101;-84
2022/08/29 06:22:21;;;;;;;;;;;23.60;61.90;;;22.98;57.55;96315.59;4146710;34;20133;-84
2022/08/29 06:24:52;;;;;;;;;;;23.60;62.10;;;22.98;57.62;96312.81;4124025;34;19904;-83
2022/08/29 06:27:20;;;;;;;;;;;23.60;62.10;;;22.98;57.77;96310.03;4146026;34;19904;-84
2022/08/29 06:29:49;;;;;;;;;;;23.60;62.10;;;22.98;57.60;96310.03;4101562;34;19960;-84
2022/08/29 06:32:17;;;;;;;;;;;23.50;62.00;;;23.00;57.70;96312.47;4100657;34;20106;-83
2022/08/29 06:34:46;;;;;;;;;;;23.60;62.10;;;23.00;57.35;96312.47;4124593;34;20188;-85
2022/08/29 06:37:14;;;;;;;;;;;23.60;62.10;;;23.01;57.27;96316.06;4118791;34;20136;-84
2022/08/29 06:39:44;;;;;;;;;;;23.60;62.20;;;23.02;57.35;96315.72;4097051;34;19905;-84
2022/08/29 06:42:13;;;;;;;;;;;23.60;62.20;;;23.05;57.47;96319.78;4119393;34;19915;-85
2022/08/29 06:44:41;;;;;;;;;;;23.60;62.20;;;23.05;57.37;96322.56;4096996;34;19905;-83
2022/08/29 06:47:10;;;;;;;;;;;23.60;62.10;;;23.07;57.34;96323.88;4118645;34;19904;-84
2022/08/29 06:49:39;;;;;;;;;;;23.60;62.20;;;23.09;57.25;96331.88;4119294;34;20062;-84
2022/08/29 06:52:07;;;;;;;;;;;23.60;62.20;;;23.09;57.66;96326.31;4096811;34;20140;-84
2022/08/29 06:54:36;;;;;;;;;;;23.60;62.20;;;23.09;57.20;96334.69;4119190;34;19911;-83
2022/08/29 06:57:06;;;;;;;;;;;23.60;62.20;;;23.09;57.69;96337.47;4097369;34;20346;-84
2022/08/29 06:59:35;;;;;;;;;;;23.60;62.30;;;23.08;57.78;96335.84;4096828;34;20225;-84
2022/08/29 07:02:04;;;;;;;;;;;23.60;62.30;;;23.07;57.88;96334.22;4097782;34;20240;-84
2022/08/29 07:04:32;;;;;;;;;;;23.60;62.30;;;23.04;57.65;96341.31;4096569;34;19944;-84
2022/08/29 07:07:01;;;;;;;;;;;23.60;62.40;;;23.04;57.60;96341.31;4118570;34;19904;-84
2022/08/29 07:09:31;;;;;;;;;;;23.60;62.50;;;23.05;57.52;96342.13;4096693;34;20012;-85
2022/08/29 07:12:00;;;;;;;;;;;23.60;62.60;;;23.06;57.59;96344.59;4096755;34;20006;-83
2022/08/29 07:14:30;;;;;;;;;;;23.60;62.50;;;23.05;57.97;96336.53;4121772;34;20109;-83
2022/08/29 07:16:59;;;;;;;;;;;23.60;62.60;;;23.04;57.68;96346.91;4123922;34;19904;-83
2022/08/29 07:19:28;;;;;;;;;;;23.60;62.60;;;23.06;57.72;96343.75;4122996;34;19938;-84
2022/08/29 07:21:59;;;;;;;;;;;23.60;62.70;;;23.05;57.89;96330.94;4101056;34;19912;-84
2022/08/29 07:24:27;;;;;;;;;;;23.60;62.70;;;23.08;57.93;96335.84;4100929;34;20010;-84
2022/08/29 07:26:56;;;;;;;;;;;23.60;62.70;;;23.09;58.04;96338.31;4122900;34;19904;-85
2022/08/29 07:29:24;;;;;;;;;;;23.60;62.70;;;23.09;57.88;96340.28;4123075;34;19927;-84
2022/08/29 07:31:54;;;;;;;;;;;23.60;62.70;;;23.12;57.57;96336.78;4123356;34;19967;-83
2022/08/29 07:34:22;;;;;;;;;;;23.60;62.70;;;23.13;57.93;96330.84;4145694;34;20075;-83
2022/08/29 07:36:51;;;;;;;;;;;23.60;62.70;;;23.15;57.95;96333.28;4122890;34;19904;-84
2022/08/29 07:39:20;;;;;;;;;;;23.60;62.70;;;23.17;57.89;96335.72;4122895;34;19922;-86
2022/08/29 07:41:49;;;;;;;;;;;23.60;62.70;;;23.19;57.68;96337.00;4100703;34;20074;-84
2022/08/29 07:44:18;;;;;;;;;;;23.70;63.60;;;23.18;57.67;96335.38;4123130;34;20219;-86
2022/08/29 07:46:47;;;;;;;;;;;23.70;62.80;;;23.21;57.84;96331.13;4122569;34;19968;-83
2022/08/29 07:49:17;;;;;;;;;;;23.70;62.70;;;23.21;57.73;96333.91;4123976;34;20123;-84
2022/08/29 07:51:45;;;;;;;;;;;23.70;62.70;;;23.22;57.71;96330.75;4122992;34;19904;-85
2022/08/29 07:54:15;;;;;;;;;;;23.70;62.60;;;23.24;57.58;96328.44;4123807;34;20173;-87
2022/08/29 07:56:44;;;;;;;;;;;23.70;62.70;;;23.25;57.54;96341.22;4122600;34;19904;-84
2022/08/29 07:59:13;;;;;;;;;;;23.70;62.50;;;23.26;57.29;96331.69;4122935;34;19904;-84
2022/08/29 08:01:42;;;;;;;;;;;23.70;62.60;;;23.27;57.53;96322.16;4145600;34;19916;-83
2022/08/29 08:04:10;;;;;;;;;;;23.70;62.60;;;23.28;57.61;96323.78;4123935;34;20161;-85
2022/08/29 08:06:41;;;;;;;;;;;23.70;62.40;;;23.29;57.49;96324.56;4145083;34;20116;-85
2022/08/29 08:09:09;;;;;;;;;;;23.70;62.50;;;23.30;57.49;96323.41;4123771;34;19904;-84
2022/08/29 08:11:39;;;;;;;;;;;23.70;62.40;;;23.29;57.37;96322.63;4122757;34;20297;-85
2022/08/29 08:14:08;;;;;;;;;;;23.70;62.30;;;23.31;57.88;96313.03;4122768;34;20332;-84
2022/08/29 08:16:36;;;;;;;;;;;23.80;62.40;;;23.28;57.26;96312.59;4099841;34;19919;-84
2022/08/29 08:19:05;;;;;;;;;;;23.80;62.40;;;23.29;57.36;96310.59;4145230;34;19911;-84
2022/08/29 08:21:34;;;;;;;;;;;23.80;62.40;;;23.27;57.70;96313.78;4123679;34;20483;-84
2022/08/29 08:24:05;;;;;;;;;;;23.80;62.40;;;23.25;57.54;96312.47;4122679;34;20168;-86
2022/08/29 08:26:34;;;;;;;;;;;23.80;62.40;;;23.22;57.90;96318.78;4099900;34;20157;-84
2022/08/29 08:29:02;;;;;;;;;;;23.70;62.60;;;23.19;57.91;96320.25;4122628;34;20223;-84
2022/08/29 08:31:31;;;;;;;;;;;23.70;62.60;;;23.16;58.00;96315.38;4122581;34;19904;-84
2022/08/29 08:34:02;;;;;;;;;;;23.70;62.80;;;23.16;57.93;96308.97;4122420;34;23071;-83
2022/08/29 08:36:31;;;;;;;;;;;23.70;62.80;;;23.15;57.89;96313.75;4122970;34;20152;-85
2022/08/29 08:39:00;;;;;;;;;;;23.70;62.80;;;23.14;57.66;96314.91;4122488;34;20108;-84
2022/08/29 08:41:38;;;;;;;;;;;23.60;62.70;;;23.14;57.83;96317.69;4122427;34;20123;-85
2022/08/29 08:44:11;;;;;;;;;;;23.70;62.90;;;23.13;58.07;96310.50;4145190;34;19904;-84
2022/08/29 08:46:40;;;;;;;;;;;23.70;62.90;;;23.11;58.60;96310.03;4122013;34;20275;-85
2022/08/29 08:49:16;;;;;;;;;;;23.60;63.00;;;23.11;58.29;96310.03;4145027;34;20391;-84
2022/08/29 08:51:49;;;;;;;;;;;23.60;63.00;;;23.08;58.21;96305.97;4122435;34;19904;-85
2022/08/29 08:54:22;;;;;;;;;;;23.60;63.00;;;23.08;58.72;96308.75;4121844;34;19904;-86
2022/08/29 08:56:55;;;;;;;;;;;23.60;63.10;;;23.06;58.38;96307.44;4099635;34;20074;-86
2022/08/29 08:59:27;;;;;;;;;;;23.60;63.20;;;23.05;58.60;96308.59;4122342;34;19915;-85
2022/08/29 09:02:00;;;;;;;;;;;23.60;63.30;;;23.03;58.75;96300.59;4122438;34;20148;-85
2022/08/29 09:04:43;;;;;;;;;;;23.60;63.40;;;23.02;58.37;96298.16;4123341;34;19904;-85
2022/08/29 09:07:22;;;;;;;;;;;23.60;63.40;;;23.01;58.47;96302.13;4121744;34;19904;-85
2022/08/29 09:10:03;;;;;;;;;;;23.60;63.50;;;22.99;58.73;96297.69;4122382;34;20070;-85
2022/08/29 09:12:41;;;;;;;;;;;23.60;63.50;;;23.00;58.73;96298.50;4100011;34;19916;-85
2022/08/29 09:15:13;;;;;;;;;;;23.60;63.50;;;22.99;58.97;96299.66;4122242;34;19904;-85
2022/08/29 09:17:44;;;;;;;;;;;23.50;63.60;;;22.99;58.70;96299.66;4099545;34;19904;-85
2022/08/29 09:20:15;;;;;;;;;;;23.60;63.60;;;22.99;58.68;96299.66;4140142;34;19904;-85
2022/08/29 09:22:49;;;;;;;;;;;23.60;63.60;;;22.97;58.90;96294.44;4122233;34;19904;-85
2022/08/29 09:25:18;;;;;;;;;;;23.60;63.70;;;22.96;59.07;96298.38;4099945;34;20102;-85
2022/08/29 09:27:49;;;;;;;;;;;23.50;63.70;;;22.96;58.93;96297.59;4099392;34;19955;-85
2022/08/29 09:30:23;;;;;;;;;;;23.50;63.70;;;22.95;58.77;96287.59;4122284;34;20114;-85
2022/08/29 09:32:54;;;;;;;;;;;23.50;63.80;;;22.95;59.15;96293.16;4100010;34;20161;-84
2022/08/29 09:35:25;;;;;;;;;;;23.50;63.90;;;22.93;58.84;96282.31;4122058;34;19904;-84
2022/08/29 09:37:59;;;;;;;;;;;23.50;63.80;;;22.92;59.07;96289.06;4099421;34;19911;-85
2022/08/29 09:40:50;;;;;;;;;;;23.50;63.80;;;22.89;58.99;96284.22;4122006;34;19980;-85
2022/08/29 09:43:27;;;;;;;;;;;23.50;63.80;;;22.91;59.00;96286.66;4122301;34;20146;-84
2022/08/29 09:46:16;;;;;;;;;;;23.50;64.00;;;22.90;58.83;96291.44;4122045;34;20031;-85
2022/08/29 09:48:46;;;;;;;;;;;23.50;64.00;;;22.88;59.05;96285.38;4121946;34;19911;-85
2022/08/29 09:51:27;;;;;;;;;;;23.50;64.00;;;22.88;59.21;96287.34;4121982;34;19923;-85
2022/08/29 09:54:17;;;;;;;;;;;23.50;64.00;;;22.86;59.20;96284.06;4099677;34;20180;-84
2022/08/29 09:56:54;;;;;;;;;;;23.50;64.00;;;22.85;58.98;96288.84;4099129;34;19912;-85
2022/08/29 09:59:32;;;;;;;;;;;23.40;64.10;;;22.85;59.54;96277.69;4099599;34;20107;-85
2022/08/29 10:02:20;;;;;;;;;;;23.50;64.20;;;22.83;59.39;96274.44;4099846;34;20172;-85
2022/08/29 10:04:51;;;;;;;;;;;23.40;64.10;;;22.83;59.33;96274.44;4121935;34;20346;-85
2022/08/29 10:07:22;;;;;;;;;;;23.40;64.10;;;22.81;59.33;96273.97;4101398;34;20335;-84
2022/08/29 10:10:00;;;;;;;;;;;23.40;64.30;;;22.82;59.56;96278.38;4124154;34;19904;-85
2022/08/29 10:12:41;;;;;;;;;;;23.40;64.20;;;22.80;59.47;96273.16;4124213;34;20123;-86
2022/08/29 10:15:15;;;;;;;;;;;23.40;64.20;;;22.81;59.35;96285.13;4101877;34;20194;-85
2022/08/29 10:20:48;;;;;;;;;;;23.40;64.20;;;22.80;59.36;96272.34;4124131;34;19904;-85
2022/08/29 10:23:22;;;;;;;;;;;23.40;64.30;;;22.79;59.32;96270.69;4123978;34;20027;-85
2022/08/29 10:25:50;;;;;;;;;;;23.40;64.40;;;22.77;59.43;96271.06;4101624;34;20018;-85
2022/08/29 10:28:23;;;;;;;;;;;23.40;64.40;;;22.77;59.53;96268.25;4123438;34;19952;-86
2022/08/29 10:30:57;;;;;;;;;;;23.40;64.40;;;22.76;59.73;96265.84;4101697;34;20162;-85
2022/08/29 10:33:34;;;;;;;;;;;23.30;64.50;;;22.75;59.36;96270.59;4101427;34;19904;-85
2022/08/29 10:36:08;;;;;;;;;;;23.40;64.50;;;22.74;59.67;96262.56;4123854;34;19904;-85
2022/08/29 10:38:46;;;;;;;;;;;23.30;64.60;;;22.74;59.95;96268.16;4101180;34;19942;-85
2022/08/29 10:41:27;;;;;;;;;;;23.30;64.60;;;22.74;59.58;96254.19;4101517;34;19911;-84
2022/08/29 10:44:08;;;;;;;;;;;23.30;64.60;;;22.72;59.66;96245.38;4124759;34;20002;-85
2022/08/29 10:47:00;;;;;;;;;;;23.30;64.70;;;22.72;59.43;96245.38;4123095;34;19945;-85
2022/08/29 10:49:43;;;;;;;;;;;23.30;64.70;;;22.72;60.06;96250.94;4101433;34;19904;-86
2022/08/29 10:52:15;;;;;;;;;;;23.30;64.80;;;22.73;59.94;96252.56;4123626;34;19911;-86
2022/08/29 10:54:51;;;;;;;;;;;23.30;64.80;;;22.71;60.03;96233.41;4124723;34;19904;-85
2022/08/29 10:57:32;;;;;;;;;;;23.30;64.80;;;22.70;59.92;96231.78;4124064;34;19908;-86
2022/08/29 11:00:05;;;;;;;;;;;23.30;64.80;;;22.71;59.98;96232.56;4123802;34;20000;-86
2022/08/29 11:02:38;;;;;;;;;;;23.30;64.90;;;22.70;60.03;96230.94;4123513;34;20131;-86
2022/08/29 11:05:11;;;;;;;;;;;23.30;64.90;;;22.67;59.85;96227.69;4101284;34;19978;-86
2022/08/29 11:07:44;;;;;;;;;;;23.30;64.90;;;22.68;60.04;96228.50;4100707;34;20298;-86
2022/08/29 11:10:16;;;;;;;;;;;23.30;64.90;;;22.67;60.12;96233.25;4101213;34;19920;-86
2022/08/29 11:12:48;;;;;;;;;;;23.30;65.00;;;22.68;60.01;96229.31;4123600;34;19911;-85
2022/08/29 11:15:20;;;;;;;;;;;23.30;65.00;;;22.68;59.98;96234.88;4123438;34;19915;-85
2022/08/29 11:17:56;;;;;;;;;;;23.30;65.10;;;22.67;60.34;96222.09;4122259;34;19904;-85
2022/08/29 11:20:30;;;;;;;;;;;23.30;65.10;;;22.66;59.99;96228.84;4123430;34;19960;-85
2022/08/29 11:23:01;;;;;;;;;;;23.30;65.20;;;22.66;60.39;96223.25;4123405;34;19911;-85
2022/08/29 11:25:31;;;;;;;;;;;23.30;65.20;;;22.67;60.30;96221.31;4101113;34;19904;-84
2022/08/29 11:28:06;;;;;;;;;;;23.30;65.20;;;22.66;60.11;96219.66;4100560;34;19904;-85
2022/08/29 11:30:42;;;;;;;;;;;23.30;65.20;;;22.65;60.31;96221.66;4123473;34;19920;-85
2022/08/29 11:33:21;;;;;;;;;;;23.30;65.40;;;22.65;60.54;96227.25;4101050;34;20133;-85
2022/08/29 11:36:00;;;;;;;;;;;23.20;65.30;;;22.65;60.42;96226.41;4100980;34;20127;-85
2022/08/29 11:38:58;;;;;;;;;;;23.20;65.20;;;22.63;60.10;96215.59;4100264;34;19911;-85